sensor_id;sensor_type;location;lat;lon;timestamp;pressure;altitude;pressure_sealevel;temperature
15544;BMP180;7873;52.230;12.856;2023-07-13T00:00:34;100543.78;;;27.66
15544;BMP180;7873;52.230;12.856;2023-07-13T00:03:03;100548.38;;;27.66
15544;BMP180;7873;52.230;12.856;2023-07-13T00:05:30;100558.16;;;27.67
15544;BMP180;7873;52.230;12.856;2023-07-13T00:07:57;100558.16;;;27.67
15544;BMP180;7873;52.230;12.856;2023-07-13T00:10:24;100548.81;;;27.63
15544;BMP180;7873;52.230;12.856;2023-07-13T00:12:51;100558.59;;;27.57
15544;BMP180;7873;52.230;12.856;2023-07-13T00:15:22;100560.88;;;27.60
15544;BMP180;7873;52.230;12.856;2023-07-13T00:17:50;100565.22;;;27.61
15544;BMP180;7873;52.230;12.856;2023-07-13T00:20:18;100575.84;;;27.63
15544;BMP180;7873;52.230;12.856;2023-07-13T00:22:47;100582.31;;;27.62
15544;BMP180;7873;52.230;12.856;2023-07-13T00:25:14;100574.41;;;27.60
15544;BMP180;7873;52.230;12.856;2023-07-13T00:27:41;100581.03;;;27.58
15544;BMP180;7873;52.230;12.856;2023-07-13T00:30:09;100575.44;;;27.59
15544;BMP180;7873;52.230;12.856;2023-07-13T00:32:36;100579.19;;;27.58
15544;BMP180;7873;52.230;12.856;2023-07-13T00:35:04;100580.44;;;27.56
15544;BMP180;7873;52.230;12.856;2023-07-13T00:37:32;100579.59;;;27.55
15544;BMP180;7873;52.230;12.856;2023-07-13T00:40:01;100577.09;;;27.54
15544;BMP180;7873;52.230;12.856;2023-07-13T00:42:28;100580.03;;;27.52
15544;BMP180;7873;52.230;12.856;2023-07-13T00:45:04;100572.97;;;27.51
15544;BMP180;7873;52.230;12.856;2023-07-13T00:47:30;100572.31;;;27.49
15544;BMP180;7873;52.230;12.856;2023-07-13T00:49:57;100568.78;;;27.49
15544;BMP180;7873;52.230;12.856;2023-07-13T00:52:24;100577.09;;;27.47
15544;BMP180;7873;52.230;12.856;2023-07-13T00:54:52;100581.47;;;27.48
15544;BMP180;7873;52.230;12.856;2023-07-13T00:57:20;100587.91;;;27.47
15544;BMP180;7873;52.230;12.856;2023-07-13T00:59:50;100585.22;;;27.47
15544;BMP180;7873;52.230;12.856;2023-07-13T01:02:19;100584.59;;;27.45
15544;BMP180;7873;52.230;12.856;2023-07-13T01:04:47;100582.94;;;27.44
15544;BMP180;7873;52.230;12.856;2023-07-13T01:07:13;100584.81;;;27.44
15544;BMP180;7873;52.230;12.856;2023-07-13T01:09:40;100579.59;;;27.42
15544;BMP180;7873;52.230;12.856;2023-07-13T01:12:09;100577.13;;;27.41
15544;BMP180;7873;52.230;12.856;2023-07-13T01:14:36;100583.34;;;27.41
15544;BMP180;7873;52.230;12.856;2023-07-13T01:17:03;100586.28;;;27.40
15544;BMP180;7873;52.230;12.856;2023-07-13T01:19:36;100573.81;;;27.39
15544;BMP180;7873;52.230;12.856;2023-07-13T01:22:06;100589.19;;;27.38
15544;BMP180;7873;52.230;12.856;2023-07-13T01:24:35;100581.28;;;27.37
15544;BMP180;7873;52.230;12.856;2023-07-13T01:27:03;100592.31;;;27.36
15544;BMP180;7873;52.230;12.856;2023-07-13T01:29:32;100591.28;;;27.37
15544;BMP180;7873;52.230;12.856;2023-07-13T01:31:59;100597.72;;;27.36
15544;BMP180;7873;52.230;12.856;2023-07-13T01:34:26;100597.72;;;27.36
15544;BMP180;7873;52.230;12.856;2023-07-13T01:36:53;100592.31;;;27.36
15544;BMP180;7873;52.230;12.856;2023-07-13T01:39:22;100589.81;;;27.34
15544;BMP180;7873;52.230;12.856;2023-07-13T01:41:49;100587.31;;;27.33
15544;BMP180;7873;52.230;12.856;2023-07-13T01:44:15;100579.41;;;27.31
15544;BMP180;7873;52.230;12.856;2023-07-13T01:46:42;100578.38;;;27.32
15544;BMP180;7873;52.230;12.856;2023-07-13T01:49:09;100581.28;;;27.31
15544;BMP180;7873;52.230;12.856;2023-07-13T01:51:35;100592.13;;;27.31
15544;BMP180;7873;52.230;12.856;2023-07-13T01:54:02;100584.19;;;27.29
15544;BMP180;7873;52.230;12.856;2023-07-13T01:56:30;100579.63;;;27.30
15544;BMP180;7873;52.230;12.856;2023-07-13T01:58:57;100577.13;;;27.28
15544;BMP180;7873;52.230;12.856;2023-07-13T02:01:23;100566.31;;;27.28
15544;BMP180;7873;52.230;12.856;2023-07-13T02:03:50;100571.91;;;27.27
15544;BMP180;7873;52.230;12.856;2023-07-13T02:06:17;100570.25;;;27.26
15544;BMP180;7873;52.230;12.856;2023-07-13T02:08:44;100568.59;;;27.25
15544;BMP180;7873;52.230;12.856;2023-07-13T02:11:11;100574.00;;;27.25
15544;BMP180;7873;52.230;12.856;2023-07-13T02:13:39;100572.34;;;27.24
15544;BMP180;7873;52.230;12.856;2023-07-13T02:16:06;100580.66;;;27.22
15544;BMP180;7873;52.230;12.856;2023-07-13T02:18:33;100574.22;;;27.23
15544;BMP180;7873;52.230;12.856;2023-07-13T02:20:59;100566.31;;;27.22
15544;BMP180;7873;52.230;12.856;2023-07-13T02:23:26;100576.31;;;27.21
15544;BMP180;7873;52.230;12.856;2023-07-13T02:25:55;100579.44;;;27.18
15544;BMP180;7873;52.230;12.856;2023-07-13T02:28:22;100575.06;;;27.17
15544;BMP180;7873;52.230;12.856;2023-07-13T02:30:50;100569.66;;;27.17
15544;BMP180;7873;52.230;12.856;2023-07-13T02:33:17;100569.03;;;27.15
15544;BMP180;7873;52.230;12.856;2023-07-13T02:35:44;100573.59;;;27.15
15544;BMP180;7873;52.230;12.856;2023-07-13T02:38:10;100577.53;;;27.12
15544;BMP180;7873;52.230;12.856;2023-07-13T02:40:37;100571.31;;;27.12
15544;BMP180;7873;52.230;12.856;2023-07-13T02:43:04;100568.81;;;27.10
15544;BMP180;7873;52.230;12.856;2023-07-13T02:45:30;100572.53;;;27.09
15544;BMP180;7873;52.230;12.856;2023-07-13T02:47:58;100582.69;;;27.07
15544;BMP180;7873;52.230;12.856;2023-07-13T02:50:25;100588.91;;;26.95
15544;BMP180;7873;52.230;12.856;2023-07-13T02:52:52;100588.69;;;26.77
15544;BMP180;7873;52.230;12.856;2023-07-13T02:55:18;100591.16;;;26.59
15544;BMP180;7873;52.230;12.856;2023-07-13T02:57:45;100591.47;;;26.43
15544;BMP180;7873;52.230;12.856;2023-07-13T03:00:12;100593.25;;;26.23
15544;BMP180;7873;52.230;12.856;2023-07-13T03:02:39;100595.06;;;26.09
15544;BMP180;7873;52.230;12.856;2023-07-13T03:05:07;100592.56;;;26.08
15544;BMP180;7873;52.230;12.856;2023-07-13T03:07:36;100591.91;;;26.06
15544;BMP180;7873;52.230;12.856;2023-07-13T03:10:03;100602.09;;;26.04
15544;BMP180;7873;52.230;12.856;2023-07-13T03:12:29;100611.22;;;26.03
15544;BMP180;7873;52.230;12.856;2023-07-13T03:14:57;100604.78;;;26.04
15544;BMP180;7873;52.230;12.856;2023-07-13T03:17:24;100615.16;;;26.00
15544;BMP180;7873;52.230;12.856;2023-07-13T03:19:50;100611.63;;;26.00
15544;BMP180;7873;52.230;12.856;2023-07-13T03:22:18;100615.34;;;25.99
15544;BMP180;7873;52.230;12.856;2023-07-13T03:24:45;100607.03;;;25.94
15544;BMP180;7873;52.230;12.856;2023-07-13T03:27:12;100612.19;;;25.89
15544;BMP180;7873;52.230;12.856;2023-07-13T03:29:38;100608.00;;;25.86
15544;BMP180;7873;52.230;12.856;2023-07-13T03:32:06;100603.84;;;25.84
15544;BMP180;7873;52.230;12.856;2023-07-13T03:34:33;100606.66;;;25.76
15544;BMP180;7873;52.230;12.856;2023-07-13T03:36:59;100608.91;;;25.66
15544;BMP180;7873;52.230;12.856;2023-07-13T03:39:27;100605.47;;;25.51
15544;BMP180;7873;52.230;12.856;2023-07-13T03:41:54;100615.69;;;25.35
15544;BMP180;7873;52.230;12.856;2023-07-13T03:44:21;100611.38;;;25.40
15544;BMP180;7873;52.230;12.856;2023-07-13T03:46:47;100611.25;;;25.48
15544;BMP180;7873;52.230;12.856;2023-07-13T03:49:14;100607.56;;;25.56
15544;BMP180;7873;52.230;12.856;2023-07-13T03:51:41;100610.50;;;25.60
15544;BMP180;7873;52.230;12.856;2023-07-13T03:54:08;100618.59;;;25.60
15544;BMP180;7873;52.230;12.856;2023-07-13T03:56:36;100620.84;;;25.57
15544;BMP180;7873;52.230;12.856;2023-07-13T03:59:02;100616.09;;;25.59
15544;BMP180;7873;52.230;12.856;2023-07-13T04:01:29;100617.56;;;25.61
15544;BMP180;7873;52.230;12.856;2023-07-13T04:03:56;100623.88;;;25.48
15544;BMP180;7873;52.230;12.856;2023-07-13T04:06:27;100632.94;;;25.40
15544;BMP180;7873;52.230;12.856;2023-07-13T04:08:56;100631.28;;;25.39
15544;BMP180;7873;52.230;12.856;2023-07-13T04:11:26;100636.22;;;25.36
15544;BMP180;7873;52.230;12.856;2023-07-13T04:13:55;100647.13;;;25.28
15544;BMP180;7873;52.230;12.856;2023-07-13T04:16:22;100649.66;;;25.29
15544;BMP180;7873;52.230;12.856;2023-07-13T04:18:49;100642.59;;;25.28
15544;BMP180;7873;52.230;12.856;2023-07-13T04:21:20;100644.66;;;25.26
15544;BMP180;7873;52.230;12.856;2023-07-13T04:23:47;100646.69;;;25.24
15544;BMP180;7873;52.230;12.856;2023-07-13T04:26:13;100648.94;;;25.21
15544;BMP180;7873;52.230;12.856;2023-07-13T04:28:40;100653.94;;;25.24
15544;BMP180;7873;52.230;12.856;2023-07-13T04:31:08;100659.16;;;25.25
15544;BMP180;7873;52.230;12.856;2023-07-13T04:33:35;100665.75;;;25.23
15544;BMP180;7873;52.230;12.856;2023-07-13T04:36:01;100658.91;;;25.20
15544;BMP180;7873;52.230;12.856;2023-07-13T04:38:29;100660.56;;;25.21
15544;BMP180;7873;52.230;12.856;2023-07-13T04:40:58;100657.50;;;25.24
15544;BMP180;7873;52.230;12.856;2023-07-13T04:43:25;100655.44;;;25.26
15544;BMP180;7873;52.230;12.856;2023-07-13T04:45:52;100648.38;;;25.25
15544;BMP180;7873;52.230;12.856;2023-07-13T04:48:21;100651.53;;;25.14
15544;BMP180;7873;52.230;12.856;2023-07-13T04:50:53;100645.97;;;25.16
15544;BMP180;7873;52.230;12.856;2023-07-13T04:53:20;100656.22;;;25.20
15544;BMP180;7873;52.230;12.856;2023-07-13T04:55:47;100651.53;;;25.14
15544;BMP180;7873;52.230;12.856;2023-07-13T04:58:13;100655.25;;;25.13
15544;BMP180;7873;52.230;12.856;2023-07-13T05:00:40;100660.44;;;25.29
15544;BMP180;7873;52.230;12.856;2023-07-13T05:03:07;100663.38;;;25.34
15544;BMP180;7873;52.230;12.856;2023-07-13T05:05:34;100662.00;;;25.45
15544;BMP180;7873;52.230;12.856;2023-07-13T05:08:01;100665.16;;;25.48
15544;BMP180;7873;52.230;12.856;2023-07-13T05:10:28;100667.06;;;25.54
15544;BMP180;7873;52.230;12.856;2023-07-13T05:12:55;100666.09;;;25.61
15544;BMP180;7873;52.230;12.856;2023-07-13T05:15:22;100676.97;;;25.68
15544;BMP180;7873;52.230;12.856;2023-07-13T05:17:49;100666.41;;;25.73
15544;BMP180;7873;52.230;12.856;2023-07-13T05:20:17;100663.72;;;25.73
15544;BMP180;7873;52.230;12.856;2023-07-13T05:22:46;100667.22;;;25.73
15544;BMP180;7873;52.230;12.856;2023-07-13T05:25:13;100671.41;;;25.76
15544;BMP180;7873;52.230;12.856;2023-07-13T05:27:40;100675.78;;;25.77
15544;BMP180;7873;52.230;12.856;2023-07-13T05:30:07;100679.31;;;25.77
15544;BMP180;7873;52.230;12.856;2023-07-13T05:32:36;100671.22;;;25.77
15544;BMP180;7873;52.230;12.856;2023-07-13T05:35:03;100672.03;;;25.78
15544;BMP180;7873;52.230;12.856;2023-07-13T05:37:30;100679.09;;;25.79
15544;BMP180;7873;52.230;12.856;2023-07-13T05:39:58;100685.53;;;25.78
15544;BMP180;7873;52.230;12.856;2023-07-13T05:42:25;100680.13;;;25.78
15544;BMP180;7873;52.230;12.856;2023-07-13T05:44:51;100682.84;;;25.78
15544;BMP180;7873;52.230;12.856;2023-07-13T05:47:18;100685.75;;;25.76
15544;BMP180;7873;52.230;12.856;2023-07-13T05:49:45;100682.00;;;25.77
15544;BMP180;7873;52.230;12.856;2023-07-13T05:52:12;100677.81;;;25.75
15544;BMP180;7873;52.230;12.856;2023-07-13T05:54:38;100677.81;;;25.75
15544;BMP180;7873;52.230;12.856;2023-07-13T05:57:06;100685.06;;;25.74
15544;BMP180;7873;52.230;12.856;2023-07-13T05:59:33;100679.69;;;25.74
15544;BMP180;7873;52.230;12.856;2023-07-13T06:02:00;100684.03;;;25.75
15544;BMP180;7873;52.230;12.856;2023-07-13T06:04:26;100683.84;;;25.77
15544;BMP180;7873;52.230;12.856;2023-07-13T06:06:53;100687.19;;;25.79
15544;BMP180;7873;52.230;12.856;2023-07-13T06:09:20;100693.22;;;25.81
15544;BMP180;7873;52.230;12.856;2023-07-13T06:11:47;100685.13;;;25.81
15544;BMP180;7873;52.230;12.856;2023-07-13T06:14:15;100691.16;;;25.83
15544;BMP180;7873;52.230;12.856;2023-07-13T06:16:41;100689.34;;;25.83
15544;BMP180;7873;52.230;12.856;2023-07-13T06:19:08;100685.78;;;25.83
15544;BMP180;7873;52.230;12.856;2023-07-13T06:21:35;100686.44;;;25.85
15544;BMP180;7873;52.230;12.856;2023-07-13T06:24:01;100688.09;;;25.86
15544;BMP180;7873;52.230;12.856;2023-07-13T06:26:28;100678.78;;;25.88
15544;BMP180;7873;52.230;12.856;2023-07-13T06:28:55;100684.81;;;25.90
15544;BMP180;7873;52.230;12.856;2023-07-13T06:31:23;100681.09;;;25.91
15544;BMP180;7873;52.230;12.856;2023-07-13T06:33:50;100679.44;;;25.90
15544;BMP180;7873;52.230;12.856;2023-07-13T06:36:16;100671.97;;;25.92
15544;BMP180;7873;52.230;12.856;2023-07-13T06:38:43;100669.47;;;25.91
15544;BMP180;7873;52.230;12.856;2023-07-13T06:41:10;100672.19;;;25.91
15544;BMP180;7873;52.230;12.856;2023-07-13T06:43:37;100668.63;;;25.90
15544;BMP180;7873;52.230;12.856;2023-07-13T06:46:03;100667.59;;;25.91
15544;BMP180;7873;52.230;12.856;2023-07-13T06:48:32;100673.84;;;25.92
15544;BMP180;7873;52.230;12.856;2023-07-13T06:50:58;100677.19;;;25.94
15544;BMP180;7873;52.230;12.856;2023-07-13T06:53:25;100685.69;;;25.97
15544;BMP180;7873;52.230;12.856;2023-07-13T06:55:52;100682.19;;;25.97
15544;BMP180;7873;52.230;12.856;2023-07-13T06:58:19;100686.34;;;25.99
15544;BMP180;7873;52.230;12.856;2023-07-13T07:00:46;100680.13;;;25.99
15544;BMP180;7873;52.230;12.856;2023-07-13T07:03:16;100686.13;;;26.01
15544;BMP180;7873;52.230;12.856;2023-07-13T07:05:44;100678.25;;;25.99
15544;BMP180;7873;52.230;12.856;2023-07-13T07:08:11;100681.59;;;26.01
15544;BMP180;7873;52.230;12.856;2023-07-13T07:10:38;100685.09;;;26.02
15544;BMP180;7873;52.230;12.856;2023-07-13T07:13:04;100683.44;;;26.01
15544;BMP180;7873;52.230;12.856;2023-07-13T07:15:31;100683.44;;;26.01
15544;BMP180;7873;52.230;12.856;2023-07-13T07:17:58;100689.88;;;26.00
15544;BMP180;7873;52.230;12.856;2023-07-13T07:20:24;100697.78;;;26.01
15544;BMP180;7873;52.230;12.856;2023-07-13T07:22:53;100705.88;;;26.01
15544;BMP180;7873;52.230;12.856;2023-07-13T07:25:20;100702.16;;;26.02
15544;BMP180;7873;52.230;12.856;2023-07-13T07:27:46;100702.16;;;26.02
15544;BMP180;7873;52.230;12.856;2023-07-13T07:30:13;100699.44;;;26.02
15544;BMP180;7873;52.230;12.856;2023-07-13T07:32:40;100697.78;;;26.01
15544;BMP180;7873;52.230;12.856;2023-07-13T07:35:07;100705.66;;;26.03
15544;BMP180;7873;52.230;12.856;2023-07-13T07:37:34;100707.53;;;26.02
15544;BMP180;7873;52.230;12.856;2023-07-13T07:40:02;100701.31;;;26.02
15544;BMP180;7873;52.230;12.856;2023-07-13T07:42:29;100696.75;;;26.02
15544;BMP180;7873;52.230;12.856;2023-07-13T07:44:56;100693.22;;;26.02
15544;BMP180;7873;52.230;12.856;2023-07-13T07:47:22;100705.88;;;26.01
15544;BMP180;7873;52.230;12.856;2023-07-13T07:49:49;100710.44;;;26.01
15544;BMP180;7873;52.230;12.856;2023-07-13T07:52:16;100704.84;;;26.02
15544;BMP180;7873;52.230;12.856;2023-07-13T07:54:43;100700.47;;;26.01
15544;BMP180;7873;52.230;12.856;2023-07-13T07:57:11;100702.34;;;26.01
15544;BMP180;7873;52.230;12.856;2023-07-13T07:59:37;100711.06;;;26.03
15544;BMP180;7873;52.230;12.856;2023-07-13T08:02:05;100696.94;;;26.01
15544;BMP180;7873;52.230;12.856;2023-07-13T08:04:32;100703.19;;;26.01
15544;BMP180;7873;52.230;12.856;2023-07-13T08:06:58;100700.09;;;26.04
15544;BMP180;7873;52.230;12.856;2023-07-13T08:09:28;100713.38;;;26.06
15544;BMP180;7873;52.230;12.856;2023-07-13T08:11:54;100702.56;;;26.06
15544;BMP180;7873;52.230;12.856;2023-07-13T08:14:22;100698.03;;;26.06
15544;BMP180;7873;52.230;12.856;2023-07-13T08:16:49;100702.56;;;26.06
15544;BMP180;7873;52.230;12.856;2023-07-13T08:19:16;100705.91;;;26.08
15544;BMP180;7873;52.230;12.856;2023-07-13T08:21:42;100714.00;;;26.08
15544;BMP180;7873;52.230;12.856;2023-07-13T08:24:09;100703.19;;;26.08
15544;BMP180;7873;52.230;12.856;2023-07-13T08:26:36;100703.19;;;26.08
15544;BMP180;7873;52.230;12.856;2023-07-13T08:29:03;100700.50;;;26.08
15544;BMP180;7873;52.230;12.856;2023-07-13T08:31:31;100696.78;;;26.09
15544;BMP180;7873;52.230;12.856;2023-07-13T08:33:58;100703.03;;;26.09
15544;BMP180;7873;52.230;12.856;2023-07-13T08:36:25;100698.66;;;26.08
15544;BMP180;7873;52.230;12.856;2023-07-13T08:38:52;100705.09;;;26.07
15544;BMP180;7873;52.230;12.856;2023-07-13T08:41:22;100706.53;;;26.10
15544;BMP180;7873;52.230;12.856;2023-07-13T08:43:51;100708.22;;;26.11
15544;BMP180;7873;52.230;12.856;2023-07-13T08:46:20;100701.81;;;26.12
15544;BMP180;7873;52.230;12.856;2023-07-13T08:48:53;100705.31;;;26.12
15544;BMP180;7873;52.230;12.856;2023-07-13T08:51:26;100706.16;;;26.13
15544;BMP180;7873;52.230;12.856;2023-07-13T08:53:57;100710.72;;;26.12
15544;BMP180;7873;52.230;12.856;2023-07-13T08:56:26;100721.50;;;26.12
15544;BMP180;7873;52.230;12.856;2023-07-13T08:58:56;100724.44;;;26.11
15544;BMP180;7873;52.230;12.856;2023-07-13T09:01:28;100716.13;;;26.12
15544;BMP180;7873;52.230;12.856;2023-07-13T09:04:05;100719.66;;;26.13
15544;BMP180;7873;52.230;12.856;2023-07-13T09:06:42;100717.78;;;26.13
15544;BMP180;7873;52.230;12.856;2023-07-13T09:09:20;100721.34;;;26.14
15544;BMP180;7873;52.230;12.856;2023-07-13T09:11:53;100714.25;;;26.13
15544;BMP180;7873;52.230;12.856;2023-07-13T09:14:38;100713.41;;;26.12
15544;BMP180;7873;52.230;12.856;2023-07-13T09:17:13;100708.03;;;26.12
15544;BMP180;7873;52.230;12.856;2023-07-13T09:19:43;100716.97;;;26.13
15544;BMP180;7873;52.230;12.856;2023-07-13T09:22:16;100721.50;;;26.12
15544;BMP180;7873;52.230;12.856;2023-07-13T09:24:52;100727.53;;;26.14
15544;BMP180;7873;52.230;12.856;2023-07-13T09:27:22;100731.28;;;26.13
15544;BMP180;7873;52.230;12.856;2023-07-13T09:29:55;100722.38;;;26.13
15544;BMP180;7873;52.230;12.856;2023-07-13T09:32:24;100732.13;;;26.14
15544;BMP180;7873;52.230;12.856;2023-07-13T09:34:54;100732.13;;;26.14
15544;BMP180;7873;52.230;12.856;2023-07-13T09:37:24;100736.69;;;26.13
15544;BMP180;7873;52.230;12.856;2023-07-13T09:39:55;100735.00;;;26.12
15544;BMP180;7873;52.230;12.856;2023-07-13T09:42:25;100731.69;;;26.10
15544;BMP180;7873;52.230;12.856;2023-07-13T09:44:55;100735.22;;;26.11
15544;BMP180;7873;52.230;12.856;2023-07-13T09:47:24;100734.19;;;26.12
15544;BMP180;7873;52.230;12.856;2023-07-13T09:49:57;100737.94;;;26.11
15544;BMP180;7873;52.230;12.856;2023-07-13T09:52:25;100739.78;;;26.10
15544;BMP180;7873;52.230;12.856;2023-07-13T09:54:53;100736.91;;;26.12
15544;BMP180;7873;52.230;12.856;2023-07-13T09:57:26;100720.69;;;26.12
15544;BMP180;7873;52.230;12.856;2023-07-13T09:59:54;100738.75;;;26.11
15544;BMP180;7873;52.230;12.856;2023-07-13T10:02:29;100726.09;;;26.12
15544;BMP180;7873;52.230;12.856;2023-07-13T10:05:01;100745.00;;;26.12
15544;BMP180;7873;52.230;12.856;2023-07-13T10:07:30;100732.53;;;26.11
15544;BMP180;7873;52.230;12.856;2023-07-13T10:09:59;100724.22;;;26.12
15544;BMP180;7873;52.230;12.856;2023-07-13T10:12:28;100736.69;;;26.13
15544;BMP180;7873;52.230;12.856;2023-07-13T10:14:57;100743.09;;;26.12
15544;BMP180;7873;52.230;12.856;2023-07-13T10:17:29;100743.31;;;26.11
15544;BMP180;7873;52.230;12.856;2023-07-13T10:20:01;100736.03;;;26.11
15544;BMP180;7873;52.230;12.856;2023-07-13T10:22:36;100736.03;;;26.11
15544;BMP180;7873;52.230;12.856;2023-07-13T10:25:13;100737.72;;;26.12
15544;BMP180;7873;52.230;12.856;2023-07-13T10:27:41;100733.16;;;26.13
15544;BMP180;7873;52.230;12.856;2023-07-13T10:30:13;100721.50;;;26.12
15544;BMP180;7873;52.230;12.856;2023-07-13T10:32:42;100728.78;;;26.12
15544;BMP180;7873;52.230;12.856;2023-07-13T10:35:12;100723.41;;;26.12
15544;BMP180;7873;52.230;12.856;2023-07-13T10:37:43;100736.22;;;26.10
15544;BMP180;7873;52.230;12.856;2023-07-13T10:40:14;100727.94;;;26.11
15544;BMP180;7873;52.230;12.856;2023-07-13T10:42:44;100728.13;;;26.10
15544;BMP180;7873;52.230;12.856;2023-07-13T10:45:14;100727.50;;;26.08
15544;BMP180;7873;52.230;12.856;2023-07-13T10:47:42;100725.44;;;26.10
15544;BMP180;7873;52.230;12.856;2023-07-13T10:50:15;100723.75;;;26.09
15544;BMP180;7873;52.230;12.856;2023-07-13T10:52:46;100727.50;;;26.08
15544;BMP180;7873;52.230;12.856;2023-07-13T10:55:39;100731.84;;;26.09
15544;BMP180;7873;52.230;12.856;2023-07-13T10:58:19;100723.75;;;26.09
15544;BMP180;7873;52.230;12.856;2023-07-13T11:00:49;100728.13;;;26.10
15544;BMP180;7873;52.230;12.856;2023-07-13T11:03:19;100727.31;;;26.09
15544;BMP180;7873;52.230;12.856;2023-07-13T11:05:50;100713.63;;;26.11
15544;BMP180;7873;52.230;12.856;2023-07-13T11:08:32;100710.94;;;26.11
15544;BMP180;7873;52.230;12.856;2023-07-13T11:11:02;100720.88;;;26.10
15544;BMP180;7873;52.230;12.856;2023-07-13T11:13:57;100730.81;;;26.10
15544;BMP180;7873;52.230;12.856;2023-07-13T11:16:41;100720.88;;;26.10
15544;BMP180;7873;52.230;12.856;2023-07-13T11:19:27;100724.44;;;26.11
15544;BMP180;7873;52.230;12.856;2023-07-13T11:22:22;100731.50;;;26.12
15544;BMP180;7873;52.230;12.856;2023-07-13T11:24:52;100708.22;;;26.11
15544;BMP180;7873;52.230;12.856;2023-07-13T11:27:32;100704.50;;;26.12
15544;BMP180;7873;52.230;12.856;2023-07-13T11:30:17;100715.94;;;26.14
15544;BMP180;7873;52.230;12.856;2023-07-13T11:32:50;100706.34;;;26.11
15544;BMP180;7873;52.230;12.856;2023-07-13T11:35:22;100708.22;;;26.11
15544;BMP180;7873;52.230;12.856;2023-07-13T11:37:50;100715.31;;;26.12
15544;BMP180;7873;52.230;12.856;2023-07-13T11:40:17;100715.31;;;26.12
15544;BMP180;7873;52.230;12.856;2023-07-13T11:42:44;100717.16;;;26.11
15544;BMP180;7873;52.230;12.856;2023-07-13T11:45:30;100708.22;;;26.11
15544;BMP180;7873;52.230;12.856;2023-07-13T11:47:57;100713.41;;;26.12
15544;BMP180;7873;52.230;12.856;2023-07-13T11:50:25;100709.91;;;26.12
15544;BMP180;7873;52.230;12.856;2023-07-13T11:52:54;100716.13;;;26.12
15544;BMP180;7873;52.230;12.856;2023-07-13T11:55:23;100717.16;;;26.11
15544;BMP180;7873;52.230;12.856;2023-07-13T11:57:51;100724.22;;;26.12
15544;BMP180;7873;52.230;12.856;2023-07-13T12:00:23;100709.69;;;26.13
15544;BMP180;7873;52.230;12.856;2023-07-13T12:02:54;100709.69;;;26.13
15544;BMP180;7873;52.230;12.856;2023-07-13T12:05:21;100726.91;;;26.12
15544;BMP180;7873;52.230;12.856;2023-07-13T12:07:49;100716.97;;;26.13
15544;BMP180;7873;52.230;12.856;2023-07-13T12:10:22;100709.69;;;26.13
15544;BMP180;7873;52.230;12.856;2023-07-13T12:12:52;100715.09;;;26.13
15544;BMP180;7873;52.230;12.856;2023-07-13T12:15:20;100733.97;;;26.13
15544;BMP180;7873;52.230;12.856;2023-07-13T12:17:49;100726.91;;;26.12
15544;BMP180;7873;52.230;12.856;2023-07-13T12:20:22;100718.81;;;26.12
15544;BMP180;7873;52.230;12.856;2023-07-13T12:22:50;100719.66;;;26.13
15544;BMP180;7873;52.230;12.856;2023-07-13T12:25:19;100718.81;;;26.12
15544;BMP180;7873;52.230;12.856;2023-07-13T12:27:48;100724.44;;;26.11
15544;BMP180;7873;52.230;12.856;2023-07-13T12:30:24;100726.47;;;26.09
15544;BMP180;7873;52.230;12.856;2023-07-13T12:33:00;100714.78;;;26.02
15544;BMP180;7873;52.230;12.856;2023-07-13T12:35:29;100719.97;;;25.97
15544;BMP180;7873;52.230;12.856;2023-07-13T12:37:59;100715.75;;;25.88
15544;BMP180;7873;52.230;12.856;2023-07-13T12:40:32;100724.66;;;25.88
15544;BMP180;7873;52.230;12.856;2023-07-13T12:43:00;100717.16;;;25.84
15544;BMP180;7873;52.230;12.856;2023-07-13T12:45:30;100719.44;;;25.87
15544;BMP180;7873;52.230;12.856;2023-07-13T12:47:58;100717.16;;;25.84
15544;BMP180;7873;52.230;12.856;2023-07-13T12:50:33;100713.41;;;25.85
15544;BMP180;7873;52.230;12.856;2023-07-13T12:53:02;100717.16;;;25.84
15544;BMP180;7873;52.230;12.856;2023-07-13T12:55:31;100711.09;;;25.82
15544;BMP180;7873;52.230;12.856;2023-07-13T12:57:59;100712.97;;;25.81
15544;BMP180;7873;52.230;12.856;2023-07-13T13:00:28;100715.03;;;25.79
15544;BMP180;7873;52.230;12.856;2023-07-13T13:03:02;100712.50;;;25.78
15544;BMP180;7873;52.230;12.856;2023-07-13T13:05:30;100704.88;;;25.81
15544;BMP180;7873;52.230;12.856;2023-07-13T13:07:58;100712.59;;;25.84
15544;BMP180;7873;52.230;12.856;2023-07-13T13:10:25;100703.06;;;25.88
15544;BMP180;7873;52.230;12.856;2023-07-13T13:12:53;100709.50;;;25.87
15544;BMP180;7873;52.230;12.856;2023-07-13T13:15:20;100708.47;;;25.88
15544;BMP180;7873;52.230;12.856;2023-07-13T13:17:47;100713.88;;;25.88
15544;BMP180;7873;52.230;12.856;2023-07-13T13:20:15;100720.94;;;25.89
15544;BMP180;7873;52.230;12.856;2023-07-13T13:22:43;100719.72;;;25.92
15544;BMP180;7873;52.230;12.856;2023-07-13T13:25:10;100713.06;;;25.88
15544;BMP180;7873;52.230;12.856;2023-07-13T13:27:37;100713.06;;;25.88
15544;BMP180;7873;52.230;12.856;2023-07-13T13:30:10;100704.50;;;25.84
15544;BMP180;7873;52.230;12.856;2023-07-13T13:32:38;100718.34;;;25.81
15544;BMP180;7873;52.230;12.856;2023-07-13T13:35:07;100709.41;;;25.81
15544;BMP180;7873;52.230;12.856;2023-07-13T13:37:38;100717.50;;;25.81
15544;BMP180;7873;52.230;12.856;2023-07-13T13:40:14;100723.13;;;25.79
15544;BMP180;7873;52.230;12.856;2023-07-13T13:42:41;100719.56;;;25.79
15544;BMP180;7873;52.230;12.856;2023-07-13T13:45:10;100719.78;;;25.77
15544;BMP180;7873;52.230;12.856;2023-07-13T13:47:38;100720.59;;;25.78
15544;BMP180;7873;52.230;12.856;2023-07-13T13:50:13;100723.28;;;25.78
15544;BMP180;7873;52.230;12.856;2023-07-13T13:52:40;100740.69;;;25.75
15544;BMP180;7873;52.230;12.856;2023-07-13T13:55:12;100739.22;;;25.73
15544;BMP180;7873;52.230;12.856;2023-07-13T13:57:38;100734.47;;;25.75
15544;BMP180;7873;52.230;12.856;2023-07-13T14:00:07;100732.59;;;25.75
15544;BMP180;7873;52.230;12.856;2023-07-13T14:02:36;100736.78;;;25.78
15544;BMP180;7873;52.230;12.856;2023-07-13T14:05:03;100734.94;;;25.78